Tellico Plains, Tennessee
Current Conditions -  °F | °C
As of 10:15 AM on Monday 24 Nov 2014 (Local Time) from KMMI Reporting Station
Overcast Overcast  
Wind Chill: 64°   Ceiling: 3600
Heat Index: 64°   Visibility: 10mi
Dew Point: 54°   Wind: 10mph
Humidity: 68%   Direction: 210°SSW
Pressure: 29.75"   Gusts: NA
Location:  35.36°N, 84.29°W
Report Text: KMMI 241515Z AUTO 21009KT 10SM SCT030 BKN036 OVC048 18/12 A2975 RMK
Loading
Personal Weather Stations






























Interactive Weather Map New forecast layout! Learn more

10-Day Weather Forecast

Advertisements
Track Severe Weather on mobile